Time;durP1;ratioP1;P1;durP2;ratioP2;P2;SDS_P1;SDS_P2;PMS_P1;PMS_P2;Temp;Humidity;BMP_temperature;BMP_pressure;BME280_temperature;BME280_humidity;BME280_pressure;Samples;Min_cycle;Max_cycle;Signal;HPM_P1;HPM_P2
2023/01/17 00:02:16;;;;;;;;;6.00;2.00;;;;;7.19;57.05;98666.09;4981122;28;45446;-57
2023/01/17 00:10:13;;;;;;;;;6.75;5.25;;;;;7.12;56.56;98648.84;4978486;28;45907;-57
2023/01/17 00:12:39;;;;;;;;;3.25;3.00;;;;;7.12;56.96;98646.22;4972803;28;45413;-58
2023/01/17 00:15:05;;;;;;;;;5.00;3.75;;;;;7.11;56.89;98649.84;4969948;28;46628;-58
2023/01/17 00:17:30;;;;;;;;;5.00;3.75;;;;;7.08;57.14;98646.63;4990658;28;46236;-57
2023/01/17 01:34:56;;;;;;;;;6.00;6.00;;;;;6.78;58.10;98614.28;4982760;28;45474;-58
2023/01/17 01:37:21;;;;;;;;;3.50;3.50;;;;;6.78;57.48;98609.03;5022950;28;57301;-58
2023/01/17 01:39:46;;;;;;;;;6.50;4.50;;;;;6.73;58.09;98594.75;4989388;28;51296;-57
2023/01/17 01:42:14;;;;;;;;;5.00;3.50;;;;;6.76;58.12;98596.13;4975347;28;65524;-58
2023/01/17 01:44:47;;;;;;;;;3.25;3.00;;;;;6.73;58.22;98594.75;4968408;28;45917;-58
2023/01/17 01:47:30;;;;;;;;;3.25;3.25;;;;;6.72;57.85;98595.75;4983040;28;45571;-58
2023/01/17 01:49:57;;;;;;;;;9.50;3.50;;;;;6.72;57.72;98600.22;4964366;28;45487;-58
2023/01/17 01:52:24;;;;;;;;;5.50;2.00;;;;;6.71;57.90;98593.34;4963735;28;46499;-58
2023/01/17 01:54:54;;;;;;;;;4.00;3.00;;;;;6.72;57.90;98595.75;5018545;28;45972;-58
2023/01/17 01:57:23;;;;;;;;;3.00;2.25;;;;;6.74;58.14;98592.91;4976357;28;45232;-58
2023/01/17 01:59:54;;;;;;;;;4.00;4.00;;;;;6.74;58.16;98588.47;4967877;28;45564;-58
2023/01/17 02:02:20;;;;;;;;;3.00;3.00;;;;;6.75;58.04;98581.41;4989922;28;45391;-58
2023/01/17 02:04:46;;;;;;;;;7.50;2.75;;;;;6.75;58.10;98581.41;4981187;28;45453;-58
2023/01/17 02:07:15;;;;;;;;;3.75;3.75;;;;;6.76;58.20;98575.13;4967780;28;45459;-59
2023/01/17 02:09:41;;;;;;;;;3.00;3.00;;;;;6.73;58.20;98558.00;4964587;28;45431;-59
2023/01/17 02:12:07;;;;;;;;;4.25;2.00;;;;;6.74;58.14;98569.28;4988281;28;65702;-59
2023/01/17 02:14:33;;;;;;;;;2.25;2.25;;;;;6.72;57.74;98551.16;4984126;28;63623;-59
2023/01/17 02:17:27;;;;;;;;;2.00;2.00;;;;;6.73;57.74;98554.56;4993101;28;45499;-59
2023/01/17 02:20:05;;;;;;;;;3.00;3.00;;;;;6.71;58.31;98551.38;4988907;28;46090;-59
2023/01/17 02:22:42;;;;;;;;;5.00;5.00;;;;;6.70;57.99;98550.56;4984431;28;45524;-59
2023/01/17 02:25:13;;;;;;;;;7.00;5.00;;;;;6.69;58.31;98548.19;4983139;28;45840;-59
2023/01/17 02:27:47;;;;;;;;;6.00;4.50;;;;;6.68;58.49;98538.69;4982322;28;45273;-59
2023/01/17 02:30:32;;;;;;;;;3.50;2.75;;;;;6.64;58.28;98540.94;4981409;28;45479;-59
2023/01/17 02:33:20;;;;;;;;;6.50;4.00;;;;;6.60;58.49;98531.09;4986493;28;46357;-59
2023/01/17 02:35:52;;;;;;;;;6.50;3.75;;;;;6.55;58.27;98523.91;4971449;28;45933;-59
2023/01/17 02:38:23;;;;;;;;;5.00;5.00;;;;;6.52;58.56;98517.28;5031767;28;45366;-59
2023/01/17 02:40:55;;;;;;;;;6.50;6.50;;;;;6.50;58.50;98518.50;4981355;28;45929;-59
2023/01/17 02:43:22;;;;;;;;;6.00;5.00;;;;;6.47;58.80;98509.25;4967773;28;46463;-59
2023/01/17 02:45:48;;;;;;;;;8.00;5.75;;;;;6.44;58.37;98507.06;4963412;28;45367;-60
2023/01/17 02:48:16;;;;;;;;;8.00;7.00;;;;;6.40;58.53;98492.78;4989468;28;61551;-59
2023/01/17 02:51:07;;;;;;;;;10.25;7.25;;;;;6.39;58.84;98496.44;4964376;28;45334;-59
2023/01/17 02:53:55;;;;;;;;;9.50;7.25;;;;;6.36;59.04;98489.81;4966437;28;46534;-58
2023/01/17 02:56:23;;;;;;;;;10.25;7.25;;;;;6.33;58.59;98482.38;4972763;28;45913;-58
2023/01/17 02:59:04;;;;;;;;;16.25;8.75;;;;;6.30;58.83;98477.59;4963863;28;45464;-58
2023/01/17 03:01:52;;;;;;;;;11.50;9.25;;;;;6.27;59.18;98472.75;4981005;28;45473;-58
2023/01/17 03:04:23;;;;;;;;;10.75;9.00;;;;;6.23;59.00;98466.38;4980406;28;46088;-58
2023/01/17 03:06:57;;;;;;;;;14.00;11.50;;;;;6.21;58.91;98452.66;4980959;28;45243;-58
2023/01/17 03:09:24;;;;;;;;;8.25;8.00;;;;;6.21;59.20;98450.84;4966648;28;45379;-58
2023/01/17 03:11:49;;;;;;;;;5.50;5.50;;;;;6.23;59.65;98446.19;4991742;28;46117;-58
2023/01/17 03:14:14;;;;;;;;;7.00;7.00;;;;;6.24;59.59;98444.34;4980653;28;45504;-57
2023/01/17 03:16:40;;;;;;;;;8.25;8.25;;;;;6.23;59.15;98440.94;4997052;28;45405;-58
2023/01/17 03:19:05;;;;;;;;;12.00;10.25;;;;;6.20;59.45;98435.31;4982453;28;61566;-58
2023/01/17 03:21:30;;;;;;;;;9.25;8.00;;;;;6.17;59.07;98431.34;4988029;28;45461;-58
2023/01/17 03:23:56;;;;;;;;;16.75;11.50;;;;;6.12;59.63;98427.78;4985391;28;66898;-58
2023/01/17 03:26:21;;;;;;;;;10.50;9.00;;;;;6.10;59.75;98427.19;4967666;28;66752;-58
2023/01/17 03:28:46;;;;;;;;;14.75;8.50;;;;;6.09;59.98;98433.44;4987139;27;56555;-58
2023/01/17 03:31:15;;;;;;;;;12.00;11.25;;;;;6.09;59.68;98428.19;4980497;28;45650;-58
2023/01/17 03:33:41;;;;;;;;;13.00;11.00;;;;;6.09;59.73;98428.19;4962728;28;45406;-58
2023/01/17 03:36:06;;;;;;;;;10.25;10.00;;;;;6.10;59.96;98428.00;5001576;28;59108;-57
2023/01/17 03:38:32;;;;;;;;;12.50;11.00;;;;;6.12;59.85;98422.53;5008428;28;45359;-58
2023/01/17 03:40:57;;;;;;;;;9.50;8.75;;;;;6.11;60.04;98413.06;4984478;28;52905;-58
2023/01/17 03:43:22;;;;;;;;;11.50;7.75;;;;;6.11;60.01;98418.31;5002042;28;46196;-59
2023/01/17 03:45:50;;;;;;;;;12.50;10.75;;;;;6.13;59.92;98416.25;4985074;28;62218;-59
2023/01/17 03:48:16;;;;;;;;;12.25;9.00;;;;;6.14;60.12;98410.00;4964330;28;45292;-58
2023/01/17 03:50:41;;;;;;;;;14.50;11.00;;;;;6.16;60.10;98405.31;4981740;28;45511;-59
2023/01/17 03:53:07;;;;;;;;;11.25;10.00;;;;;6.18;59.95;98408.53;4980773;28;45616;-59
2023/01/17 03:55:32;;;;;;;;;13.25;10.25;;;;;6.18;59.77;98406.69;5012368;28;49463;-59
2023/01/17 03:57:57;;;;;;;;;14.00;11.50;;;;;6.21;59.97;98406.25;4996676;28;56697;-58
2023/01/17 04:00:23;;;;;;;;;15.00;12.25;;;;;6.23;59.70;98412.09;4983861;28;51387;-59
2023/01/17 04:02:48;;;;;;;;;17.25;15.75;;;;;6.22;59.75;98410.50;4979853;28;45702;-58
2023/01/17 04:05:13;;;;;;;;;10.50;10.50;;;;;6.22;60.03;98412.31;4979134;28;46261;-58
2023/01/17 04:07:40;;;;;;;;;15.00;10.75;;;;;6.20;59.85;98404.69;4980622;28;46017;-58
2023/01/17 04:10:05;;;;;;;;;11.50;10.75;;;;;6.20;59.90;98404.69;4981644;28;45335;-58
2023/01/17 04:12:31;;;;;;;;;13.00;13.00;;;;;6.22;60.34;98399.22;4991794;28;46288;-57
2023/01/17 04:14:56;;;;;;;;;11.75;11.25;;;;;6.21;60.17;98401.00;4994303;27;61380;-57
2023/01/17 04:17:22;;;;;;;;;11.25;10.50;;;;;6.20;60.16;98393.38;4992593;28;53257;-58
2023/01/17 04:19:47;;;;;;;;;14.50;13.50;;;;;6.17;59.94;98388.56;4984707;28;45593;-58
2023/01/17 04:22:13;;;;;;;;;11.75;10.00;;;;;6.12;60.28;98384.00;4986641;28;51865;-58
2023/01/17 04:24:38;;;;;;;;;9.75;9.75;;;;;6.10;59.92;98383.44;4982064;28;45794;-58
2023/01/17 04:27:04;;;;;;;;;11.75;11.75;;;;;6.07;60.25;98388.28;4966622;28;49611;-58
2023/01/17 04:29:29;;;;;;;;;13.00;9.00;;;;;6.05;60.15;98383.28;4987316;28;45513;-58
2023/01/17 04:31:55;;;;;;;;;16.50;11.75;;;;;6.04;60.36;98382.47;4994840;28;46249;-58
2023/01/17 04:34:20;;;;;;;;;14.75;12.75;;;;;6.05;60.27;98385.91;4979930;28;45340;-58
2023/01/17 04:36:46;;;;;;;;;14.75;11.75;;;;;6.05;60.36;98384.06;4983268;28;45373;-58
2023/01/17 04:39:11;;;;;;;;;15.50;14.00;;;;;6.03;60.48;98375.63;4979051;28;45256;-57
2023/01/17 04:41:36;;;;;;;;;17.25;15.00;;;;;6.01;60.41;98375.03;4974939;28;47229;-58
2023/01/17 04:44:03;;;;;;;;;10.75;10.25;;;;;6.03;60.31;98372.19;4985569;28;45561;-58
2023/01/17 04:46:28;;;;;;;;;15.25;11.25;;;;;6.03;60.70;98370.38;4983263;28;45332;-58
2023/01/17 04:48:53;;;;;;;;;11.25;10.75;;;;;6.03;60.76;98362.53;4980349;28;45372;-57
2023/01/17 04:51:19;;;;;;;;;11.25;11.00;;;;;6.00;60.42;98362.97;4979478;28;63912;-58
2023/01/17 04:53:44;;;;;;;;;14.50;11.25;;;;;6.00;60.61;98362.97;4982763;28;52847;-58
2023/01/17 04:56:09;;;;;;;;;18.00;10.75;;;;;5.98;60.45;98362.38;4994820;28;45727;-58
2023/01/17 04:58:35;;;;;;;;;11.25;11.25;;;;;5.99;60.71;98361.38;4984657;28;45478;-58
2023/01/17 05:01:02;;;;;;;;;18.25;16.00;;;;;6.01;60.80;98346.19;4985188;28;65888;-58
2023/01/17 05:03:28;;;;;;;;;10.75;10.75;;;;;6.04;60.51;98347.59;4979977;28;46291;-58
2023/01/17 05:05:53;;;;;;;;;18.50;16.75;;;;;6.05;60.46;98341.34;4989256;28;45561;-58
2023/01/17 05:08:19;;;;;;;;;17.00;15.00;;;;;6.08;60.35;98345.34;4980404;28;52493;-58
2023/01/17 05:10:45;;;;;;;;;12.50;9.25;;;;;6.09;60.50;98345.13;4989086;28;45666;-59
2023/01/17 05:13:11;;;;;;;;;12.25;11.75;;;;;6.09;60.73;98333.81;4989025;28;45513;-59
2023/01/17 05:15:36;;;;;;;;;10.25;8.00;;;;;6.08;60.35;98332.22;4981370;28;45634;-59
2023/01/17 05:18:06;;;;;;;;;13.00;9.50;;;;;6.04;60.64;98327.44;4975815;28;45417;-58
2023/01/17 05:20:31;;;;;;;;;12.00;8.00;;;;;6.01;60.04;98324.44;4985483;28;45485;-59
2023/01/17 05:22:57;;;;;;;;;14.00;9.75;;;;;6.00;60.46;98320.22;5000532;28;57291;-59
2023/01/17 05:25:28;;;;;;;;;10.25;8.00;;;;;5.94;60.74;98315.84;4977646;28;45480;-57
2023/01/17 05:27:54;;;;;;;;;12.75;11.75;;;;;5.86;60.55;98309.88;4985486;28;45777;-59
2023/01/17 05:30:20;;;;;;;;;16.00;12.50;;;;;5.84;60.78;98316.34;4978534;28;45485;-59
2023/01/17 05:32:49;;;;;;;;;17.25;14.50;;;;;5.86;60.93;98315.13;4980270;28;45350;-59
2023/01/17 05:35:19;;;;;;;;;13.25;12.00;;;;;5.85;60.91;98310.09;4987832;28;45744;-59
2023/01/17 05:37:49;;;;;;;;;11.25;11.25;;;;;5.79;60.67;98317.03;4977731;28;45512;-59
2023/01/17 05:40:19;;;;;;;;;10.75;8.50;;;;;5.72;61.18;98309.22;4976748;28;45867;-59
2023/01/17 05:42:48;;;;;;;;;16.75;13.25;;;;;5.67;61.41;98313.53;4988722;28;46033;-59
2023/01/17 05:45:15;;;;;;;;;13.75;12.50;;;;;5.66;61.00;98314.56;4975546;28;45554;-59
2023/01/17 05:47:42;;;;;;;;;12.25;11.50;;;;;5.64;61.35;98311.34;4975501;28;45656;-59
2023/01/17 05:50:09;;;;;;;;;16.25;15.25;;;;;5.67;61.47;98306.47;4960005;28;47243;-59
2023/01/17 05:52:35;;;;;;;;;12.75;11.00;;;;;5.72;61.05;98296.13;4977959;28;45607;-60
2023/01/17 05:55:00;;;;;;;;;13.75;12.75;;;;;5.74;61.20;98290.66;4981950;28;58821;-59
2023/01/17 05:57:25;;;;;;;;;15.75;15.25;;;;;5.72;61.01;98298.75;4980177;28;50530;-59
2023/01/17 05:59:51;;;;;;;;;20.25;13.25;;;;;5.72;61.02;98293.50;4978355;28;66716;-59
2023/01/17 06:02:16;;;;;;;;;15.00;12.00;;;;;5.75;61.11;98291.50;4976125;28;63819;-59
2023/01/17 06:04:41;;;;;;;;;15.75;13.25;;;;;5.76;60.93;98295.69;4975039;28;56445;-57
2023/01/17 06:07:06;;;;;;;;;17.75;13.25;;;;;5.76;61.00;98299.13;4976615;28;47227;-58
2023/01/17 06:09:32;;;;;;;;;20.75;15.50;;;;;5.76;61.19;98293.88;4985484;28;50428;-58
2023/01/17 06:11:57;;;;;;;;;14.75;14.00;;;;;5.76;60.87;98293.06;4976744;28;45525;-58
2023/01/17 06:14:23;;;;;;;;;20.75;15.75;;;;;5.77;60.89;98292.06;4977287;28;59025;-58
2023/01/17 06:16:48;;;;;;;;;15.75;15.25;;;;;5.76;60.74;98293.06;4980125;28;47166;-59
2023/01/17 06:19:13;;;;;;;;;15.50;11.25;;;;;5.70;61.07;98295.56;4978301;28;46032;-58
2023/01/17 06:21:39;;;;;;;;;12.75;12.75;;;;;5.64;61.50;98291.19;4976202;28;64494;-59
2023/01/17 06:24:04;;;;;;;;;13.75;12.25;;;;;5.60;61.34;98295.28;4987275;28;57020;-59
2023/01/17 06:26:29;;;;;;;;;13.25;11.25;;;;;5.63;61.37;98296.66;4980715;28;45739;-58
2023/01/17 06:28:55;;;;;;;;;6.00;6.00;;;;;5.63;61.09;98292.22;4979009;28;63105;-58
2023/01/17 06:31:20;;;;;;;;;9.25;8.25;;;;;5.65;61.20;98286.75;4982159;28;45667;-58
2023/01/17 06:33:45;;;;;;;;;11.50;7.25;;;;;5.65;60.89;98286.75;4980022;28;58104;-57
2023/01/17 06:36:11;;;;;;;;;31.75;25.75;;;;;5.67;61.05;98284.72;4981974;28;53550;-57
2023/01/17 06:38:36;;;;;;;;;21.50;19.00;;;;;5.66;60.97;98297.03;4988944;28;62362;-58
2023/01/17 06:41:05;;;;;;;;;20.00;18.50;;;;;5.68;61.15;98288.94;4969365;28;45467;-58
2023/01/17 06:43:32;;;;;;;;;16.00;13.25;;;;;5.69;61.11;98287.94;4978101;28;45545;-58
2023/01/17 06:45:58;;;;;;;;;20.00;16.00;;;;;5.66;60.91;98289.16;4962957;28;45667;-57
2023/01/17 06:48:24;;;;;;;;;12.75;10.50;;;;;5.66;60.93;98289.16;4990589;28;46536;-58
2023/01/17 06:50:49;;;;;;;;;11.75;10.50;;;;;5.67;60.99;98285.53;4977005;28;53087;-57
2023/01/17 06:53:15;;;;;;;;;21.75;15.00;;;;;5.65;61.20;98281.53;4981341;28;46798;-58
2023/01/17 06:55:42;;;;;;;;;18.00;16.50;;;;;5.65;61.08;98279.69;4984106;28;45431;-58
2023/01/17 06:58:08;;;;;;;;;14.75;12.50;;;;;5.65;61.04;98286.75;4980565;28;46919;-58
2023/01/17 07:00:34;;;;;;;;;25.75;24.25;;;;;5.62;61.14;98295.06;4971082;28;45334;-58
2023/01/17 07:03:00;;;;;;;;;15.75;15.75;;;;;5.60;61.15;98290.03;4980116;28;45522;-58
2023/01/17 07:05:27;;;;;;;;;21.50;15.00;;;;;5.58;60.99;98293.91;4974118;28;45554;-58
2023/01/17 07:07:52;;;;;;;;;22.00;14.25;;;;;5.56;61.21;98296.75;4988052;28;46206;-58
2023/01/17 07:10:18;;;;;;;;;21.50;16.00;;;;;5.56;61.18;98290.69;4994366;27;45704;-57
2023/01/17 07:12:43;;;;;;;;;12.75;12.00;;;;;5.53;61.44;98295.34;4977381;28;60576;-58
2023/01/17 07:15:09;;;;;;;;;17.00;16.00;;;;;5.54;61.34;98296.13;4978245;28;45548;-57
2023/01/17 07:17:34;;;;;;;;;31.00;23.25;;;;;5.50;61.17;98290.56;4997420;28;45636;-57
2023/01/17 07:20:00;;;;;;;;;22.00;20.00;;;;;5.47;61.40;98300.66;4978023;28;58648;-59
2023/01/17 07:22:25;;;;;;;;;18.75;14.25;;;;;5.45;61.51;98303.50;5001600;28;45457;-58
2023/01/17 07:24:57;;;;;;;;;26.50;18.50;;;;;5.46;61.28;98302.47;4988875;28;45440;-58
2023/01/17 07:27:22;;;;;;;;;22.75;21.50;;;;;5.46;61.34;98304.28;4980243;28;45957;-58
2023/01/17 07:29:48;;;;;;;;;23.50;19.00;;;;;5.45;61.15;98303.50;4979817;28;45297;-57
2023/01/17 07:32:13;;;;;;;;;18.25;12.50;;;;;5.42;61.06;98303.94;4980169;28;45154;-58
2023/01/17 07:34:39;;;;;;;;;20.25;14.75;;;;;5.35;61.32;98290.91;4980066;28;45248;-58
2023/01/17 07:37:05;;;;;;;;;20.25;17.75;;;;;5.34;61.32;98298.97;4993748;28;64216;-58
2023/01/17 07:39:30;;;;;;;;;21.50;20.00;;;;;5.35;61.18;98303.19;4979849;28;45360;-58
2023/01/17 07:41:55;;;;;;;;;24.75;19.25;;;;;5.33;61.60;98300.81;4999311;28;45323;-58
2023/01/17 07:44:21;;;;;;;;;20.25;16.25;;;;;5.32;61.41;98296.59;5000656;28;49240;-58
2023/01/17 07:46:46;;;;;;;;;56.25;42.00;;;;;5.31;61.68;98296.78;4979912;28;45489;-58
2023/01/17 07:49:13;;;;;;;;;23.75;19.00;;;;;5.30;61.70;98301.25;4978194;28;45346;-58
2023/01/17 07:51:38;;;;;;;;;20.75;17.00;;;;;5.31;62.13;98297.59;4979669;28;45359;-58
2023/01/17 07:54:04;;;;;;;;;19.00;16.00;;;;;5.36;61.42;98295.13;4985978;28;45421;-58
2023/01/17 07:56:29;;;;;;;;;30.50;23.75;;;;;5.36;61.59;98299.56;5032404;28;64695;-58
2023/01/17 07:58:54;;;;;;;;;29.75;20.50;;;;;5.34;61.79;98302.41;4978817;28;62380;-57
2023/01/17 08:01:20;;;;;;;;;20.75;15.00;;;;;5.35;61.69;98297.97;4979295;28;56686;-58
2023/01/17 08:03:45;;;;;;;;;20.75;16.25;;;;;5.30;61.62;98301.25;4978957;28;53686;-58
2023/01/17 08:06:17;;;;;;;;;22.75;15.00;;;;;5.34;61.82;98298.97;4979312;28;46220;-57
2023/01/17 08:08:43;;;;;;;;;14.00;11.00;;;;;5.35;61.83;98308.44;5023317;28;45358;-57
2023/01/17 08:11:09;;;;;;;;;16.50;14.50;;;;;5.35;62.18;98306.63;4988348;28;45340;-58
2023/01/17 08:13:34;;;;;;;;;20.00;18.25;;;;;5.36;61.95;98315.28;4979269;28;55927;-57
2023/01/17 08:16:01;;;;;;;;;22.25;19.75;;;;;5.39;61.92;98316.66;4990075;28;68149;-57
2023/01/17 08:18:27;;;;;;;;;14.50;12.00;;;;;5.38;61.92;98318.47;5003786;28;46295;-56
2023/01/17 08:20:53;;;;;;;;;17.75;13.25;;;;;5.39;62.03;98311.41;4961690;28;46743;-58
2023/01/17 08:23:18;;;;;;;;;17.25;12.75;;;;;5.40;61.57;98311.22;5038608;28;45542;-58
2023/01/17 08:25:43;;;;;;;;;14.75;12.50;;;;;5.42;61.99;98308.38;4985997;28;45563;-58
2023/01/17 08:28:09;;;;;;;;;18.00;14.75;;;;;5.44;62.09;98307.13;4979400;28;45252;-56
2023/01/17 08:30:34;;;;;;;;;18.25;17.00;;;;;5.44;62.12;98306.34;4979202;28;45346;-58
2023/01/17 08:33:00;;;;;;;;;14.50;12.75;;;;;5.45;62.11;98313.97;4979092;28;50549;-58
2023/01/17 08:35:26;;;;;;;;;25.00;17.75;;;;;5.44;62.08;98314.97;4978325;28;60168;-56
2023/01/17 08:37:53;;;;;;;;;18.25;15.75;;;;;5.44;61.92;98314.19;5012729;28;45398;-58
2023/01/17 08:40:19;;;;;;;;;17.25;14.75;;;;;5.46;61.90;98320.81;4981923;28;45439;-57
2023/01/17 08:42:52;;;;;;;;;21.25;17.25;;;;;5.48;62.02;98321.38;5035810;28;45391;-58
2023/01/17 08:45:17;;;;;;;;;20.75;15.25;;;;;5.49;61.97;98322.22;4964295;28;46434;-58
2023/01/17 08:47:42;;;;;;;;;23.00;16.75;;;;;5.52;62.08;98311.28;4980868;28;61934;-58
2023/01/17 08:50:08;;;;;;;;;27.25;19.25;;;;;5.56;62.16;98320.31;4981287;28;60444;-56
2023/01/17 08:52:34;;;;;;;;;24.00;18.25;;;;;5.58;62.25;98302.53;4982224;28;45292;-58
2023/01/17 08:55:00;;;;;;;;;18.00;16.00;;;;;5.54;62.71;98306.63;4981177;28;46690;-58
2023/01/17 08:57:25;;;;;;;;;24.50;17.50;;;;;5.55;62.23;98303.00;4981399;28;45437;-57
2023/01/17 08:59:50;;;;;;;;;19.50;17.75;;;;;5.59;62.08;98303.34;4981543;28;45327;-58
2023/01/17 09:02:17;;;;;;;;;21.25;15.75;;;;;5.63;61.93;98301.88;4982102;28;45404;-57
2023/01/17 09:04:47;;;;;;;;;16.25;15.50;;;;;5.67;62.05;98303.88;4982990;28;46443;-58
2023/01/17 09:07:13;;;;;;;;;24.00;19.00;;;;;5.73;62.28;98307.44;4982068;28;45402;-58
2023/01/17 09:09:39;;;;;;;;;17.25;15.00;;;;;5.72;62.01;98301.38;5017215;28;45353;-57
2023/01/17 09:12:05;;;;;;;;;26.25;16.00;;;;;5.77;62.07;98298.09;4982252;28;45557;-58
2023/01/17 09:14:30;;;;;;;;;20.25;16.25;;;;;5.81;61.85;98298.47;4981402;28;45404;-58
2023/01/17 09:16:56;;;;;;;;;21.25;17.50;;;;;5.83;62.17;98293.78;5015723;27;45445;-58
2023/01/17 09:19:21;;;;;;;;;16.00;13.50;;;;;5.84;62.08;98300.63;4985321;28;45342;-58
2023/01/17 09:21:46;;;;;;;;;21.50;19.25;;;;;5.87;61.99;98301.00;4963355;28;54449;-58
2023/01/17 09:24:12;;;;;;;;;24.00;16.00;;;;;5.89;61.90;98291.09;4983362;28;62434;-58
2023/01/17 09:26:37;;;;;;;;;15.25;13.75;;;;;5.94;62.10;98290.41;4981344;28;45314;-58
2023/01/17 09:29:03;;;;;;;;;24.00;20.50;;;;;6.00;62.00;98294.00;4980860;28;55218;-58
2023/01/17 09:31:29;;;;;;;;;16.25;12.75;;;;;6.01;61.64;98295.63;4981772;28;45264;-57
2023/01/17 09:33:55;;;;;;;;;18.75;15.25;;;;;6.01;62.11;98291.16;4963599;28;45628;-58
2023/01/17 09:36:22;;;;;;;;;18.50;15.00;;;;;6.00;61.66;98297.44;5012395;28;45417;-58
2023/01/17 09:38:48;;;;;;;;;18.25;13.00;;;;;5.98;62.12;98294.22;4982059;28;45355;-58
2023/01/17 09:41:28;;;;;;;;;19.25;14.50;;;;;5.98;61.93;98307.34;4981784;28;45390;-57
2023/01/17 09:43:58;;;;;;;;;14.25;11.50;;;;;6.00;62.17;98302.69;4970261;28;45451;-57
2023/01/17 09:46:28;;;;;;;;;16.50;15.00;;;;;6.07;61.99;98301.78;4981252;28;45289;-58
2023/01/17 09:49:22;;;;;;;;;25.25;17.75;;;;;6.12;62.00;98307.97;4964045;28;45287;-57
2023/01/17 09:51:48;;;;;;;;;18.75;12.25;;;;;6.11;61.92;98311.59;4981470;28;45323;-58
2023/01/17 09:54:21;;;;;;;;;13.75;12.50;;;;;6.12;61.65;98315.84;4980558;28;65120;-58
2023/01/17 09:56:54;;;;;;;;;23.75;18.00;;;;;6.09;61.84;98323.31;4963623;28;45569;-58
2023/01/17 09:59:51;;;;;;;;;20.00;16.25;;;;;6.08;62.27;98319.91;4947142;28;45338;-57
2023/01/17 10:02:29;;;;;;;;;18.50;15.75;;;;;6.04;62.27;98324.00;4981410;28;45328;-57
2023/01/17 10:05:19;;;;;;;;;17.25;14.50;;;;;6.01;62.50;98330.47;4963065;28;45459;-57
2023/01/17 10:08:16;;;;;;;;;21.75;16.25;;;;;6.02;62.52;98328.69;4983287;28;46057;-59
2023/01/17 10:11:06;;;;;;;;;17.00;11.75;;;;;6.04;62.54;98331.84;4969089;28;45600;-58
2023/01/17 10:13:50;;;;;;;;;19.75;15.75;;;;;6.11;62.71;98337.03;4964048;28;45423;-59
2023/01/17 10:16:39;;;;;;;;;12.00;11.25;;;;;6.18;62.55;98332.50;5003624;28;47815;-57
2023/01/17 10:19:04;;;;;;;;;15.50;12.25;;;;;6.19;62.23;98336.72;4997840;28;45303;-57
2023/01/17 10:22:03;;;;;;;;;13.33;12.33;;;;;6.19;62.47;98336.72;4980642;28;45604;-58
2023/01/17 10:24:46;;;;;;;;;12.75;10.25;;;;;6.22;62.67;98336.28;4969347;28;45509;-57
2023/01/17 10:27:19;;;;;;;;;11.00;11.00;;;;;6.30;62.27;98335.97;4980437;28;46550;-58
2023/01/17 10:29:46;;;;;;;;;11.00;7.00;;;;;6.34;61.97;98331.84;4963480;28;45491;-57
2023/01/17 10:32:13;;;;;;;;;13.75;11.00;;;;;6.37;62.15;98335.84;4980661;28;45356;-57
2023/01/17 10:34:42;;;;;;;;;10.75;7.75;;;;;6.44;61.89;98341.81;4980114;28;55118;-57
2023/01/17 10:37:36;;;;;;;;;7.25;6.25;;;;;6.49;61.78;98328.84;5014450;28;46371;-58
2023/01/17 10:40:16;;;;;;;;;9.50;7.25;;;;;6.48;61.59;98323.81;4980156;28;45347;-58
2023/01/17 10:42:49;;;;;;;;;13.50;11.50;;;;;6.46;61.47;98325.84;5014377;28;45517;-58
2023/01/17 10:45:24;;;;;;;;;18.00;13.75;;;;;6.46;62.12;98331.09;4983434;28;45453;-58
2023/01/17 10:47:59;;;;;;;;;22.00;13.50;;;;;6.49;61.78;98331.47;4962545;28;45534;-58
2023/01/17 10:50:26;;;;;;;;;22.25;18.50;;;;;6.53;61.94;98329.16;4962211;28;45364;-58
2023/01/17 10:53:02;;;;;;;;;19.75;16.50;;;;;6.62;61.46;98327.06;4980155;28;45525;-58
2023/01/17 10:55:52;;;;;;;;;13.00;12.00;;;;;6.63;61.62;98329.44;4984103;28;45264;-58
2023/01/17 10:58:17;;;;;;;;;13.25;12.00;;;;;6.57;61.05;98331.16;4962740;28;45449;-56
2023/01/17 11:01:09;;;;;;;;;18.50;18.25;;;;;6.52;61.46;98317.88;4961158;28;62764;-57
2023/01/17 11:03:35;;;;;;;;;18.50;12.75;;;;;6.46;61.44;98312.72;4980136;28;45339;-57
2023/01/17 11:06:27;;;;;;;;;16.50;11.25;;;;;6.39;61.64;98313.63;4961986;28;49917;-58
2023/01/17 11:08:57;;;;;;;;;14.50;14.00;;;;;6.38;62.34;98313.88;5013009;28;46174;-57
2023/01/17 11:11:30;;;;;;;;;16.50;15.25;;;;;6.38;61.27;98304.16;4979179;28;45501;-58
2023/01/17 11:13:58;;;;;;;;;18.75;14.75;;;;;6.42;61.81;98303.72;4962208;28;45403;-58
2023/01/17 11:16:26;;;;;;;;;17.25;13.00;;;;;6.45;61.86;98298.03;5009274;28;45414;-58
2023/01/17 11:19:16;;;;;;;;;16.75;11.75;;;;;6.45;61.60;98300.66;5005032;27;45453;-57
2023/01/17 11:21:51;;;;;;;;;14.25;12.75;;;;;6.39;61.62;98297.91;4962328;28;45390;-57
2023/01/17 11:24:21;;;;;;;;;14.25;11.00;;;;;6.37;61.83;98294.72;4963433;28;45473;-58
2023/01/17 11:26:48;;;;;;;;;17.75;14.25;;;;;6.39;61.98;98292.66;4962408;28;45606;-58
2023/01/17 11:29:31;;;;;;;;;16.25;13.00;;;;;6.43;61.75;98287.78;4979432;28;46478;-59
2023/01/17 11:32:35;;;;;;;;;20.25;11.50;;;;;6.49;62.20;98293.94;4979117;28;45252;-57
2023/01/17 11:35:19;;;;;;;;;15.50;12.00;;;;;6.48;61.53;98287.88;4979256;28;45508;-59
2023/01/17 11:37:48;;;;;;;;;13.50;9.75;;;;;6.49;61.93;98291.31;5014408;28;45343;-58
2023/01/17 11:40:13;;;;;;;;;14.75;11.75;;;;;6.46;61.68;98297.00;4979000;28;46399;-57
2023/01/17 11:42:39;;;;;;;;;15.50;11.00;;;;;6.45;61.56;98292.78;5029187;28;45299;-58
2023/01/17 11:45:25;;;;;;;;;27.25;23.75;;;;;6.49;62.28;98291.31;4988304;28;45323;-58
2023/01/17 11:48:12;;;;;;;;;20.00;16.50;;;;;6.55;61.79;98287.78;4979312;28;45398;-57
2023/01/17 11:50:43;;;;;;;;;20.00;16.50;;;;;6.59;61.89;98296.81;4961329;28;46346;-58
2023/01/17 11:53:20;;;;;;;;;16.25;11.75;;;;;6.61;62.00;98289.50;4978770;28;45853;-58
2023/01/17 11:56:06;;;;;;;;;14.00;10.25;;;;;6.65;62.01;98280.16;4961698;28;45465;-59
2023/01/17 11:58:33;;;;;;;;;10.25;9.75;;;;;6.73;61.29;98281.63;4962290;28;45499;-59
2023/01/17 12:01:10;;;;;;;;;17.25;8.75;;;;;6.75;61.34;98280.38;4979101;28;45752;-59
2023/01/17 12:03:48;;;;;;;;;13.25;10.25;;;;;6.75;60.64;98271.72;4979220;28;45785;-58
2023/01/17 12:06:28;;;;;;;;;17.50;12.25;;;;;6.70;61.10;98275.03;4961545;28;45318;-58
2023/01/17 12:09:05;;;;;;;;;13.50;12.75;;;;;6.66;61.10;98276.50;5018817;28;45315;-58
2023/01/17 12:15:21;;;;;;;;;14.50;12.50;;;;;6.61;61.06;98273.75;5027409;28;45534;-57
2023/01/17 12:18:08;;;;;;;;;12.50;11.25;;;;;6.52;60.55;98272.50;5003832;28;45473;-58
2023/01/17 12:20:58;;;;;;;;;19.50;18.25;;;;;6.44;60.93;98270.19;4961828;28;45317;-58
2023/01/17 12:23:55;;;;;;;;;24.25;19.75;;;;;6.44;61.35;98268.38;5031183;28;46527;-57
2023/01/17 12:26:29;;;;;;;;;18.00;13.50;;;;;6.42;61.26;98261.75;4961454;28;45548;-58
2023/01/17 12:28:54;;;;;;;;;10.75;8.25;;;;;6.39;60.92;98260.41;4978751;28;45354;-58
2023/01/17 12:31:25;;;;;;;;;14.33;10.00;;;;;6.39;61.29;98261.19;4978860;28;46009;-58
2023/01/17 12:33:58;;;;;;;;;18.00;9.00;;;;;6.42;61.51;98259.13;4978939;28;45541;-58
2023/01/17 12:36:31;;;;;;;;;9.25;9.25;;;;;6.40;60.94;98262.78;4980963;28;45397;-58
2023/01/17 12:39:01;;;;;;;;;13.75;11.75;;;;;6.34;60.98;98266.28;4961677;28;45434;-57
2023/01/17 12:41:32;;;;;;;;;13.50;9.75;;;;;6.33;61.07;98254.22;4978920;28;45481;-57
2023/01/17 12:43:59;;;;;;;;;11.50;7.25;;;;;6.32;60.91;98252.63;4970910;28;45557;-58
2023/01/17 12:46:42;;;;;;;;;13.25;11.75;;;;;6.27;61.29;98252.47;4957697;28;45446;-58
2023/01/17 12:49:26;;;;;;;;;16.00;10.00;;;;;6.26;61.49;98250.09;4974438;28;45370;-58
2023/01/17 12:51:56;;;;;;;;;13.00;11.00;;;;;6.26;61.70;98261.38;4958867;28;45424;-59
2023/01/17 12:54:38;;;;;;;;;12.00;11.00;;;;;6.33;61.57;98250.78;4971968;28;46375;-57
2023/01/17 12:57:13;;;;;;;;;9.50;8.25;;;;;6.37;60.92;98252.75;4957942;28;45473;-57
2023/01/17 12:59:48;;;;;;;;;10.75;9.75;;;;;6.34;61.42;98249.78;4959078;28;45398;-58
2023/01/17 13:02:32;;;;;;;;;9.75;7.00;;;;;6.35;61.29;98256.63;4959794;28;45515;-57
2023/01/17 13:05:14;;;;;;;;;6.50;6.00;;;;;6.38;60.85;98249.09;4957487;28;45491;-57
2023/01/17 13:08:08;;;;;;;;;9.50;7.25;;;;;6.39;61.56;98250.69;4957725;28;45859;-57